sensor_id;sensor_type;location;lat;lon;timestamp;temperature;humidity
25058;DHT22;13057;50.978;11.034;2023-03-13T00:01:41;9.40;99.90
25058;DHT22;13057;50.978;11.034;2023-03-13T00:04:08;9.40;99.90
25058;DHT22;13057;50.978;11.034;2023-03-13T00:06:36;9.40;99.90
25058;DHT22;13057;50.978;11.034;2023-03-13T00:09:05;9.40;99.90
25058;DHT22;13057;50.978;11.034;2023-03-13T00:11:32;9.30;99.90
25058;DHT22;13057;50.978;11.034;2023-03-13T00:14:01;9.30;99.90
25058;DHT22;13057;50.978;11.034;2023-03-13T00:16:29;9.30;99.90
25058;DHT22;13057;50.978;11.034;2023-03-13T00:18:57;9.20;99.90
25058;DHT22;13057;50.978;11.034;2023-03-13T00:21:26;9.20;99.90
25058;DHT22;13057;50.978;11.034;2023-03-13T00:23:54;9.10;99.90
25058;DHT22;13057;50.978;11.034;2023-03-13T00:26:24;9.10;99.90
25058;DHT22;13057;50.978;11.034;2023-03-13T00:28:52;9.10;99.90
25058;DHT22;13057;50.978;11.034;2023-03-13T00:31:21;9.10;99.90
25058;DHT22;13057;50.978;11.034;2023-03-13T00:33:51;9.10;99.90
25058;DHT22;13057;50.978;11.034;2023-03-13T00:36:22;9.10;99.90
25058;DHT22;13057;50.978;11.034;2023-03-13T00:38:50;9.00;99.90
25058;DHT22;13057;50.978;11.034;2023-03-13T00:41:21;9.00;99.90
25058;DHT22;13057;50.978;11.034;2023-03-13T00:43:49;8.90;99.90
25058;DHT22;13057;50.978;11.034;2023-03-13T00:46:18;8.90;99.90
25058;DHT22;13057;50.978;11.034;2023-03-13T00:48:47;9.00;99.90
25058;DHT22;13057;50.978;11.034;2023-03-13T00:51:16;8.90;99.90
25058;DHT22;13057;50.978;11.034;2023-03-13T00:53:44;8.90;99.90
25058;DHT22;13057;50.978;11.034;2023-03-13T00:56:13;8.90;99.90
25058;DHT22;13057;50.978;11.034;2023-03-13T00:58:41;8.90;99.90
25058;DHT22;13057;50.978;11.034;2023-03-13T01:01:16;8.90;99.90
25058;DHT22;13057;50.978;11.034;2023-03-13T01:03:50;8.90;99.90
25058;DHT22;13057;50.978;11.034;2023-03-13T01:06:21;9.00;99.90
25058;DHT22;13057;50.978;11.034;2023-03-13T01:08:48;9.10;99.90
25058;DHT22;13057;50.978;11.034;2023-03-13T01:11:18;9.20;99.90
25058;DHT22;13057;50.978;11.034;2023-03-13T01:13:46;9.20;99.90
25058;DHT22;13057;50.978;11.034;2023-03-13T01:16:15;9.20;99.90
25058;DHT22;13057;50.978;11.034;2023-03-13T01:18:46;9.30;99.90
25058;DHT22;13057;50.978;11.034;2023-03-13T01:21:14;9.30;99.90
25058;DHT22;13057;50.978;11.034;2023-03-13T01:23:41;9.20;99.90
25058;DHT22;13057;50.978;11.034;2023-03-13T01:26:08;9.30;99.90
25058;DHT22;13057;50.978;11.034;2023-03-13T01:28:36;9.30;99.90
25058;DHT22;13057;50.978;11.034;2023-03-13T01:31:15;9.30;99.90
25058;DHT22;13057;50.978;11.034;2023-03-13T01:33:45;9.30;99.90
25058;DHT22;13057;50.978;11.034;2023-03-13T01:36:13;9.30;99.90
25058;DHT22;13057;50.978;11.034;2023-03-13T01:38:40;9.40;99.90
25058;DHT22;13057;50.978;11.034;2023-03-13T01:41:10;9.40;99.90
25058;DHT22;13057;50.978;11.034;2023-03-13T01:43:37;9.50;99.90
25058;DHT22;13057;50.978;11.034;2023-03-13T01:46:13;9.50;99.90
25058;DHT22;13057;50.978;11.034;2023-03-13T01:48:51;9.50;99.90
25058;DHT22;13057;50.978;11.034;2023-03-13T01:51:24;9.50;99.90
25058;DHT22;13057;50.978;11.034;2023-03-13T01:53:56;9.50;99.90
25058;DHT22;13057;50.978;11.034;2023-03-13T01:56:31;9.60;99.90
25058;DHT22;13057;50.978;11.034;2023-03-13T01:59:00;9.60;99.90
25058;DHT22;13057;50.978;11.034;2023-03-13T02:01:28;9.60;99.90
25058;DHT22;13057;50.978;11.034;2023-03-13T02:03:56;9.60;99.90
25058;DHT22;13057;50.978;11.034;2023-03-13T02:06:24;9.60;99.90
25058;DHT22;13057;50.978;11.034;2023-03-13T02:08:56;9.60;99.90
25058;DHT22;13057;50.978;11.034;2023-03-13T02:11:34;9.60;99.90
25058;DHT22;13057;50.978;11.034;2023-03-13T02:14:04;9.60;99.90
25058;DHT22;13057;50.978;11.034;2023-03-13T02:16:32;9.70;99.90
25058;DHT22;13057;50.978;11.034;2023-03-13T02:19:02;9.70;99.90
25058;DHT22;13057;50.978;11.034;2023-03-13T02:21:42;9.70;99.90
25058;DHT22;13057;50.978;11.034;2023-03-13T02:24:22;9.80;99.90
25058;DHT22;13057;50.978;11.034;2023-03-13T02:26:52;9.80;99.90
25058;DHT22;13057;50.978;11.034;2023-03-13T02:29:19;9.80;99.90
25058;DHT22;13057;50.978;11.034;2023-03-13T02:31:47;9.90;99.90
25058;DHT22;13057;50.978;11.034;2023-03-13T02:34:21;9.90;99.90
25058;DHT22;13057;50.978;11.034;2023-03-13T02:36:49;9.90;99.90
25058;DHT22;13057;50.978;11.034;2023-03-13T02:39:19;9.90;99.90
25058;DHT22;13057;50.978;11.034;2023-03-13T02:41:47;9.90;99.90
25058;DHT22;13057;50.978;11.034;2023-03-13T02:44:15;9.90;99.90
25058;DHT22;13057;50.978;11.034;2023-03-13T02:46:47;9.90;99.90
25058;DHT22;13057;50.978;11.034;2023-03-13T02:49:25;9.90;99.90
25058;DHT22;13057;50.978;11.034;2023-03-13T02:51:55;9.90;99.90
25058;DHT22;13057;50.978;11.034;2023-03-13T02:54:27;9.90;99.90
25058;DHT22;13057;50.978;11.034;2023-03-13T02:56:59;9.90;99.90
25058;DHT22;13057;50.978;11.034;2023-03-13T02:59:26;9.90;99.90
25058;DHT22;13057;50.978;11.034;2023-03-13T03:01:54;9.90;99.90
25058;DHT22;13057;50.978;11.034;2023-03-13T03:04:22;10.00;99.90
25058;DHT22;13057;50.978;11.034;2023-03-13T03:06:50;10.00;99.90
25058;DHT22;13057;50.978;11.034;2023-03-13T03:09:18;10.00;99.90
25058;DHT22;13057;50.978;11.034;2023-03-13T03:11:45;10.00;99.90
25058;DHT22;13057;50.978;11.034;2023-03-13T03:14:12;10.00;99.90
25058;DHT22;13057;50.978;11.034;2023-03-13T03:16:40;10.00;99.90
25058;DHT22;13057;50.978;11.034;2023-03-13T03:19:07;10.00;99.90
25058;DHT22;13057;50.978;11.034;2023-03-13T03:21:34;10.00;99.90
25058;DHT22;13057;50.978;11.034;2023-03-13T03:24:01;10.00;99.90
25058;DHT22;13057;50.978;11.034;2023-03-13T03:26:28;10.00;99.90
25058;DHT22;13057;50.978;11.034;2023-03-13T03:28:55;10.00;99.90
25058;DHT22;13057;50.978;11.034;2023-03-13T03:31:22;10.00;99.90
25058;DHT22;13057;50.978;11.034;2023-03-13T03:33:49;10.00;99.90
25058;DHT22;13057;50.978;11.034;2023-03-13T03:36:19;10.10;99.90
25058;DHT22;13057;50.978;11.034;2023-03-13T03:38:46;10.10;99.90
25058;DHT22;13057;50.978;11.034;2023-03-13T03:41:14;10.10;99.90
25058;DHT22;13057;50.978;11.034;2023-03-13T03:43:41;10.10;99.90
25058;DHT22;13057;50.978;11.034;2023-03-13T03:46:09;10.20;99.90
25058;DHT22;13057;50.978;11.034;2023-03-13T03:48:36;10.20;99.90
25058;DHT22;13057;50.978;11.034;2023-03-13T03:51:03;10.30;99.90
25058;DHT22;13057;50.978;11.034;2023-03-13T03:53:30;10.20;99.90
25058;DHT22;13057;50.978;11.034;2023-03-13T03:55:58;10.30;99.90
25058;DHT22;13057;50.978;11.034;2023-03-13T03:58:25;10.20;99.90
25058;DHT22;13057;50.978;11.034;2023-03-13T04:00:53;10.20;99.90
25058;DHT22;13057;50.978;11.034;2023-03-13T04:03:20;10.20;99.90
25058;DHT22;13057;50.978;11.034;2023-03-13T04:05:47;10.20;99.90
25058;DHT22;13057;50.978;11.034;2023-03-13T04:08:15;10.30;99.90
25058;DHT22;13057;50.978;11.034;2023-03-13T04:10:42;10.20;99.90
25058;DHT22;13057;50.978;11.034;2023-03-13T04:13:09;10.30;99.90
25058;DHT22;13057;50.978;11.034;2023-03-13T04:15:38;10.20;99.90
25058;DHT22;13057;50.978;11.034;2023-03-13T04:18:05;10.20;99.90
25058;DHT22;13057;50.978;11.034;2023-03-13T04:20:32;10.20;99.90
25058;DHT22;13057;50.978;11.034;2023-03-13T04:22:59;10.20;99.90
25058;DHT22;13057;50.978;11.034;2023-03-13T04:25:26;10.20;99.90
25058;DHT22;13057;50.978;11.034;2023-03-13T04:27:52;10.20;99.90
25058;DHT22;13057;50.978;11.034;2023-03-13T04:30:19;10.20;99.90
25058;DHT22;13057;50.978;11.034;2023-03-13T04:32:46;10.20;99.90
25058;DHT22;13057;50.978;11.034;2023-03-13T04:35:13;10.20;99.90
25058;DHT22;13057;50.978;11.034;2023-03-13T04:37:40;10.20;99.90
25058;DHT22;13057;50.978;11.034;2023-03-13T04:40:07;10.20;99.90
25058;DHT22;13057;50.978;11.034;2023-03-13T04:42:34;10.20;99.90
25058;DHT22;13057;50.978;11.034;2023-03-13T04:45:01;10.20;99.90
25058;DHT22;13057;50.978;11.034;2023-03-13T04:47:28;10.20;99.90
25058;DHT22;13057;50.978;11.034;2023-03-13T04:49:55;10.30;99.90
25058;DHT22;13057;50.978;11.034;2023-03-13T04:52:21;10.30;99.90
25058;DHT22;13057;50.978;11.034;2023-03-13T04:54:48;10.30;99.90
25058;DHT22;13057;50.978;11.034;2023-03-13T04:57:16;10.30;99.90
25058;DHT22;13057;50.978;11.034;2023-03-13T04:59:43;10.40;99.90
25058;DHT22;13057;50.978;11.034;2023-03-13T05:02:11;10.40;99.90
25058;DHT22;13057;50.978;11.034;2023-03-13T05:04:38;10.40;99.90
25058;DHT22;13057;50.978;11.034;2023-03-13T05:07:05;10.40;99.90
25058;DHT22;13057;50.978;11.034;2023-03-13T05:09:32;10.40;99.90
25058;DHT22;13057;50.978;11.034;2023-03-13T05:11:59;10.40;99.90
25058;DHT22;13057;50.978;11.034;2023-03-13T05:14:26;10.50;99.90
25058;DHT22;13057;50.978;11.034;2023-03-13T05:16:53;10.50;99.90
25058;DHT22;13057;50.978;11.034;2023-03-13T05:19:19;10.50;99.90
25058;DHT22;13057;50.978;11.034;2023-03-13T05:21:46;10.50;99.90
25058;DHT22;13057;50.978;11.034;2023-03-13T05:24:13;10.50;99.90
25058;DHT22;13057;50.978;11.034;2023-03-13T05:26:40;10.50;99.90
25058;DHT22;13057;50.978;11.034;2023-03-13T05:29:06;10.50;99.90
25058;DHT22;13057;50.978;11.034;2023-03-13T05:31:33;10.40;99.90
25058;DHT22;13057;50.978;11.034;2023-03-13T05:34:00;10.40;99.90
25058;DHT22;13057;50.978;11.034;2023-03-13T05:36:27;10.40;99.90
25058;DHT22;13057;50.978;11.034;2023-03-13T05:38:53;10.40;99.90
25058;DHT22;13057;50.978;11.034;2023-03-13T05:41:20;10.40;99.90
25058;DHT22;13057;50.978;11.034;2023-03-13T05:43:47;10.30;99.90
25058;DHT22;13057;50.978;11.034;2023-03-13T05:46:13;10.30;99.90
25058;DHT22;13057;50.978;11.034;2023-03-13T05:48:41;10.30;99.90
25058;DHT22;13057;50.978;11.034;2023-03-13T05:51:12;10.30;99.90
25058;DHT22;13057;50.978;11.034;2023-03-13T05:53:39;10.30;99.90
25058;DHT22;13057;50.978;11.034;2023-03-13T05:56:06;10.30;99.90
25058;DHT22;13057;50.978;11.034;2023-03-13T05:58:33;10.30;99.90
25058;DHT22;13057;50.978;11.034;2023-03-13T06:01:06;10.30;99.90
25058;DHT22;13057;50.978;11.034;2023-03-13T06:03:33;10.30;99.90
25058;DHT22;13057;50.978;11.034;2023-03-13T06:06:00;10.30;99.90
25058;DHT22;13057;50.978;11.034;2023-03-13T06:08:27;10.30;99.90
25058;DHT22;13057;50.978;11.034;2023-03-13T06:10:58;10.40;99.90
25058;DHT22;13057;50.978;11.034;2023-03-13T06:13:25;10.40;99.90
25058;DHT22;13057;50.978;11.034;2023-03-13T06:15:53;10.50;99.90
25058;DHT22;13057;50.978;11.034;2023-03-13T06:18:20;10.50;99.90
25058;DHT22;13057;50.978;11.034;2023-03-13T06:20:48;10.50;99.90
25058;DHT22;13057;50.978;11.034;2023-03-13T06:23:16;10.60;99.90
25058;DHT22;13057;50.978;11.034;2023-03-13T06:25:46;10.60;99.90
25058;DHT22;13057;50.978;11.034;2023-03-13T06:28:14;10.70;99.90
25058;DHT22;13057;50.978;11.034;2023-03-13T06:30:41;10.70;99.90
25058;DHT22;13057;50.978;11.034;2023-03-13T06:33:08;10.70;99.90
25058;DHT22;13057;50.978;11.034;2023-03-13T06:35:39;10.70;99.90
25058;DHT22;13057;50.978;11.034;2023-03-13T06:38:07;10.80;99.90
25058;DHT22;13057;50.978;11.034;2023-03-13T06:40:33;10.80;99.90
25058;DHT22;13057;50.978;11.034;2023-03-13T06:43:00;10.80;99.90
25058;DHT22;13057;50.978;11.034;2023-03-13T06:45:29;10.80;99.90
25058;DHT22;13057;50.978;11.034;2023-03-13T06:47:56;10.80;99.90
25058;DHT22;13057;50.978;11.034;2023-03-13T06:50:23;10.80;99.90
25058;DHT22;13057;50.978;11.034;2023-03-13T06:52:50;10.80;99.90
25058;DHT22;13057;50.978;11.034;2023-03-13T06:55:16;10.80;99.90
25058;DHT22;13057;50.978;11.034;2023-03-13T06:57:43;10.90;99.90
25058;DHT22;13057;50.978;11.034;2023-03-13T07:00:10;10.90;99.90
25058;DHT22;13057;50.978;11.034;2023-03-13T07:02:37;10.90;99.90
25058;DHT22;13057;50.978;11.034;2023-03-13T07:05:05;10.90;99.90
25058;DHT22;13057;50.978;11.034;2023-03-13T07:07:33;11.00;99.90
25058;DHT22;13057;50.978;11.034;2023-03-13T07:10:00;11.10;99.90
25058;DHT22;13057;50.978;11.034;2023-03-13T07:12:27;11.10;99.90
25058;DHT22;13057;50.978;11.034;2023-03-13T07:14:54;11.20;99.90
25058;DHT22;13057;50.978;11.034;2023-03-13T07:17:21;11.20;99.90
25058;DHT22;13057;50.978;11.034;2023-03-13T07:19:48;11.20;99.90
25058;DHT22;13057;50.978;11.034;2023-03-13T07:22:15;11.20;99.90
25058;DHT22;13057;50.978;11.034;2023-03-13T07:24:41;11.20;99.90
25058;DHT22;13057;50.978;11.034;2023-03-13T07:27:08;11.20;99.90
25058;DHT22;13057;50.978;11.034;2023-03-13T07:29:35;11.10;99.90
25058;DHT22;13057;50.978;11.034;2023-03-13T07:32:02;11.10;99.90
25058;DHT22;13057;50.978;11.034;2023-03-13T07:34:29;11.20;99.90
25058;DHT22;13057;50.978;11.034;2023-03-13T07:36:56;11.10;99.90
25058;DHT22;13057;50.978;11.034;2023-03-13T07:39:21;11.20;99.90
25058;DHT22;13057;50.978;11.034;2023-03-13T07:41:48;11.20;99.90
25058;DHT22;13057;50.978;11.034;2023-03-13T07:44:15;11.20;99.90
25058;DHT22;13057;50.978;11.034;2023-03-13T07:46:42;11.20;99.90
25058;DHT22;13057;50.978;11.034;2023-03-13T07:49:09;11.30;99.90
25058;DHT22;13057;50.978;11.034;2023-03-13T07:51:36;11.30;99.90
25058;DHT22;13057;50.978;11.034;2023-03-13T07:54:03;11.30;99.90
25058;DHT22;13057;50.978;11.034;2023-03-13T07:56:30;11.40;99.90
25058;DHT22;13057;50.978;11.034;2023-03-13T07:58:56;11.50;99.90
25058;DHT22;13057;50.978;11.034;2023-03-13T08:01:25;11.60;99.90
25058;DHT22;13057;50.978;11.034;2023-03-13T08:03:55;11.70;99.90
25058;DHT22;13057;50.978;11.034;2023-03-13T08:06:25;11.70;99.90
25058;DHT22;13057;50.978;11.034;2023-03-13T08:08:55;11.80;99.90
25058;DHT22;13057;50.978;11.034;2023-03-13T08:11:24;11.90;99.90
25058;DHT22;13057;50.978;11.034;2023-03-13T08:13:52;12.00;99.90
25058;DHT22;13057;50.978;11.034;2023-03-13T08:16:23;12.00;99.90
25058;DHT22;13057;50.978;11.034;2023-03-13T08:18:53;12.00;99.90
25058;DHT22;13057;50.978;11.034;2023-03-13T08:21:23;12.00;99.90
25058;DHT22;13057;50.978;11.034;2023-03-13T08:23:56;12.00;99.90
25058;DHT22;13057;50.978;11.034;2023-03-13T08:26:28;12.10;99.90
25058;DHT22;13057;50.978;11.034;2023-03-13T08:28:58;12.10;99.90
25058;DHT22;13057;50.978;11.034;2023-03-13T08:31:29;12.10;99.90
25058;DHT22;13057;50.978;11.034;2023-03-13T08:33:57;12.20;99.90
25058;DHT22;13057;50.978;11.034;2023-03-13T08:36:27;12.20;99.90
25058;DHT22;13057;50.978;11.034;2023-03-13T08:38:58;12.30;99.90
25058;DHT22;13057;50.978;11.034;2023-03-13T08:41:29;12.30;99.90
25058;DHT22;13057;50.978;11.034;2023-03-13T08:44:00;12.40;99.90
25058;DHT22;13057;50.978;11.034;2023-03-13T08:46:29;12.50;99.90
25058;DHT22;13057;50.978;11.034;2023-03-13T08:48:57;12.60;99.90
25058;DHT22;13057;50.978;11.034;2023-03-13T08:51:26;12.70;99.90
25058;DHT22;13057;50.978;11.034;2023-03-13T08:53:58;12.80;99.90
25058;DHT22;13057;50.978;11.034;2023-03-13T08:56:29;12.90;99.90
25058;DHT22;13057;50.978;11.034;2023-03-13T08:58:57;12.90;99.90
25058;DHT22;13057;50.978;11.034;2023-03-13T09:01:28;12.90;99.90
25058;DHT22;13057;50.978;11.034;2023-03-13T09:03:56;12.90;99.90
25058;DHT22;13057;50.978;11.034;2023-03-13T09:06:22;12.90;99.90
25058;DHT22;13057;50.978;11.034;2023-03-13T09:08:49;12.90;99.90
25058;DHT22;13057;50.978;11.034;2023-03-13T09:11:18;13.00;99.90
25058;DHT22;13057;50.978;11.034;2023-03-13T09:13:47;13.00;99.90
25058;DHT22;13057;50.978;11.034;2023-03-13T09:16:18;13.10;99.90
25058;DHT22;13057;50.978;11.034;2023-03-13T09:18:47;13.00;99.90
25058;DHT22;13057;50.978;11.034;2023-03-13T09:21:17;13.00;99.90
25058;DHT22;13057;50.978;11.034;2023-03-13T09:23:44;13.00;99.90
25058;DHT22;13057;50.978;11.034;2023-03-13T09:26:12;13.10;99.90
25058;DHT22;13057;50.978;11.034;2023-03-13T09:28:39;13.20;99.90
25058;DHT22;13057;50.978;11.034;2023-03-13T09:31:09;13.20;99.90
25058;DHT22;13057;50.978;11.034;2023-03-13T09:33:37;13.30;99.90
25058;DHT22;13057;50.978;11.034;2023-03-13T09:36:05;13.30;99.90
25058;DHT22;13057;50.978;11.034;2023-03-13T09:38:33;13.40;99.90
25058;DHT22;13057;50.978;11.034;2023-03-13T09:41:21;13.50;99.90
25058;DHT22;13057;50.978;11.034;2023-03-13T09:44:01;13.40;99.90
25058;DHT22;13057;50.978;11.034;2023-03-13T09:46:37;13.50;99.90
25058;DHT22;13057;50.978;11.034;2023-03-13T09:49:14;13.40;99.90
25058;DHT22;13057;50.978;11.034;2023-03-13T09:51:48;13.40;99.90
25058;DHT22;13057;50.978;11.034;2023-03-13T09:54:24;13.40;99.90
25058;DHT22;13057;50.978;11.034;2023-03-13T09:59:36;13.40;99.90
25058;DHT22;13057;50.978;11.034;2023-03-13T10:02:35;13.30;99.90
25058;DHT22;13057;50.978;11.034;2023-03-13T10:05:15;13.30;99.90
25058;DHT22;13057;50.978;11.034;2023-03-13T10:07:46;13.30;99.90
25058;DHT22;13057;50.978;11.034;2023-03-13T10:10:23;13.30;99.90
25058;DHT22;13057;50.978;11.034;2023-03-13T10:12:58;13.30;99.90
25058;DHT22;13057;50.978;11.034;2023-03-13T10:15:41;13.40;99.90
25058;DHT22;13057;50.978;11.034;2023-03-13T10:18:15;13.40;99.90
25058;DHT22;13057;50.978;11.034;2023-03-13T10:20:44;13.40;99.90
25058;DHT22;13057;50.978;11.034;2023-03-13T10:23:24;13.40;99.90
25058;DHT22;13057;50.978;11.034;2023-03-13T10:25:55;13.50;99.90
25058;DHT22;13057;50.978;11.034;2023-03-13T10:28:25;13.60;99.90
25058;DHT22;13057;50.978;11.034;2023-03-13T10:31:03;13.70;99.90
25058;DHT22;13057;50.978;11.034;2023-03-13T10:33:31;13.80;99.90
25058;DHT22;13057;50.978;11.034;2023-03-13T10:36:08;13.90;99.90
25058;DHT22;13057;50.978;11.034;2023-03-13T10:38:48;14.00;99.90
25058;DHT22;13057;50.978;11.034;2023-03-13T10:41:28;14.20;99.90
25058;DHT22;13057;50.978;11.034;2023-03-13T10:44:05;14.20;99.90
25058;DHT22;13057;50.978;11.034;2023-03-13T10:46:34;14.20;99.90
25058;DHT22;13057;50.978;11.034;2023-03-13T10:49:16;14.20;99.90
25058;DHT22;13057;50.978;11.034;2023-03-13T10:51:58;14.40;99.90
25058;DHT22;13057;50.978;11.034;2023-03-13T10:54:31;14.40;99.90
25058;DHT22;13057;50.978;11.034;2023-03-13T10:57:25;14.50;99.90
25058;DHT22;13057;50.978;11.034;2023-03-13T10:59:54;14.60;99.90
25058;DHT22;13057;50.978;11.034;2023-03-13T11:02:30;14.60;99.90
25058;DHT22;13057;50.978;11.034;2023-03-13T11:04:58;14.60;99.90
25058;DHT22;13057;50.978;11.034;2023-03-13T11:07:29;14.60;99.90
25058;DHT22;13057;50.978;11.034;2023-03-13T11:09:59;14.60;99.90
25058;DHT22;13057;50.978;11.034;2023-03-13T11:12:27;14.70;99.90
25058;DHT22;13057;50.978;11.034;2023-03-13T11:14:59;14.80;99.90
25058;DHT22;13057;50.978;11.034;2023-03-13T11:17:33;14.90;99.90
25058;DHT22;13057;50.978;11.034;2023-03-13T11:20:12;14.90;99.90
25058;DHT22;13057;50.978;11.034;2023-03-13T11:22:55;14.90;99.90
25058;DHT22;13057;50.978;11.034;2023-03-13T11:25:33;15.00;99.90
25058;DHT22;13057;50.978;11.034;2023-03-13T11:28:27;14.90;99.90
25058;DHT22;13057;50.978;11.034;2023-03-13T11:31:08;15.00;99.90
25058;DHT22;13057;50.978;11.034;2023-03-13T11:33:52;15.00;99.90
25058;DHT22;13057;50.978;11.034;2023-03-13T11:36:38;15.10;99.90
25058;DHT22;13057;50.978;11.034;2023-03-13T11:42:34;15.10;99.90
25058;DHT22;13057;50.978;11.034;2023-03-13T11:48:16;15.00;99.90
25058;DHT22;13057;50.978;11.034;2023-03-13T11:50:54;15.10;99.90
25058;DHT22;13057;50.978;11.034;2023-03-13T11:53:39;15.10;99.90
25058;DHT22;13057;50.978;11.034;2023-03-13T11:56:25;15.10;99.90
25058;DHT22;13057;50.978;11.034;2023-03-13T12:01:53;15.20;99.90
25058;DHT22;13057;50.978;11.034;2023-03-13T12:04:27;15.20;99.90
25058;DHT22;13057;50.978;11.034;2023-03-13T12:07:11;15.20;99.90
25058;DHT22;13057;50.978;11.034;2023-03-13T12:09:53;15.30;99.90
25058;DHT22;13057;50.978;11.034;2023-03-13T12:12:42;15.30;99.90
25058;DHT22;13057;50.978;11.034;2023-03-13T12:15:22;15.20;99.90
25058;DHT22;13057;50.978;11.034;2023-03-13T12:17:59;15.20;99.90
25058;DHT22;13057;50.978;11.034;2023-03-13T12:20:40;15.20;99.90
25058;DHT22;13057;50.978;11.034;2023-03-13T12:23:18;15.20;99.90
25058;DHT22;13057;50.978;11.034;2023-03-13T12:25:50;15.30;99.90
25058;DHT22;13057;50.978;11.034;2023-03-13T12:28:28;15.30;99.90
25058;DHT22;13057;50.978;11.034;2023-03-13T12:31:05;15.30;99.90
25058;DHT22;13057;50.978;11.034;2023-03-13T12:33:42;15.30;99.90
25058;DHT22;13057;50.978;11.034;2023-03-13T12:36:21;15.30;99.90
25058;DHT22;13057;50.978;11.034;2023-03-13T12:39:21;15.30;99.90
25058;DHT22;13057;50.978;11.034;2023-03-13T12:42:11;15.30;99.90
25058;DHT22;13057;50.978;11.034;2023-03-13T12:44:39;15.40;99.90
25058;DHT22;13057;50.978;11.034;2023-03-13T12:47:14;15.30;99.90
25058;DHT22;13057;50.978;11.034;2023-03-13T12:49:57;15.30;99.90
25058;DHT22;13057;50.978;11.034;2023-03-13T12:52:46;15.30;99.90
25058;DHT22;13057;50.978;11.034;2023-03-13T12:55:32;15.30;99.90
25058;DHT22;13057;50.978;11.034;2023-03-13T12:58:20;15.30;99.90
25058;DHT22;13057;50.978;11.034;2023-03-13T13:00:50;15.30;99.90
25058;DHT22;13057;50.978;11.034;2023-03-13T13:03:32;15.30;99.90
25058;DHT22;13057;50.978;11.034;2023-03-13T13:06:11;15.30;99.90
25058;DHT22;13057;50.978;11.034;2023-03-13T13:08:43;15.30;99.90
25058;DHT22;13057;50.978;11.034;2023-03-13T13:11:43;15.30;99.90
25058;DHT22;13057;50.978;11.034;2023-03-13T13:14:53;15.30;99.90
25058;DHT22;13057;50.978;11.034;2023-03-13T13:20:25;15.40;99.90
25058;DHT22;13057;50.978;11.034;2023-03-13T13:22:52;15.40;99.90
25058;DHT22;13057;50.978;11.034;2023-03-13T13:25:31;15.50;99.90
25058;DHT22;13057;50.978;11.034;2023-03-13T13:28:31;15.50;99.90
25058;DHT22;13057;50.978;11.034;2023-03-13T13:30:59;15.50;99.90
25058;DHT22;13057;50.978;11.034;2023-03-13T13:33:34;15.50;99.90
25058;DHT22;13057;50.978;11.034;2023-03-13T13:36:25;15.50;99.90
25058;DHT22;13057;50.978;11.034;2023-03-13T13:38:54;15.50;99.90
25058;DHT22;13057;50.978;11.034;2023-03-13T13:41:23;15.50;99.90
25058;DHT22;13057;50.978;11.034;2023-03-13T13:44:18;15.50;99.90
25058;DHT22;13057;50.978;11.034;2023-03-13T13:46:46;15.50;99.90
25058;DHT22;13057;50.978;11.034;2023-03-13T13:49:16;15.50;99.90
25058;DHT22;13057;50.978;11.034;2023-03-13T13:57:28;15.60;99.90
25058;DHT22;13057;50.978;11.034;2023-03-13T14:00:17;15.60;99.90
25058;DHT22;13057;50.978;11.034;2023-03-13T14:02:53;15.70;99.90
25058;DHT22;13057;50.978;11.034;2023-03-13T14:05:22;15.70;99.90
25058;DHT22;13057;50.978;11.034;2023-03-13T14:08:05;15.60;99.90
25058;DHT22;13057;50.978;11.034;2023-03-13T14:10:39;15.60;99.90
25058;DHT22;13057;50.978;11.034;2023-03-13T14:13:16;15.70;99.90
25058;DHT22;13057;50.978;11.034;2023-03-13T14:15:45;15.70;99.90
25058;DHT22;13057;50.978;11.034;2023-03-13T14:18:21;15.80;99.90
25058;DHT22;13057;50.978;11.034;2023-03-13T14:20:54;15.80;99.90
25058;DHT22;13057;50.978;11.034;2023-03-13T14:23:36;15.80;99.90
25058;DHT22;13057;50.978;11.034;2023-03-13T14:26:14;15.80;99.90
25058;DHT22;13057;50.978;11.034;2023-03-13T14:28:46;15.80;99.90
25058;DHT22;13057;50.978;11.034;2023-03-13T14:31:25;15.80;99.90
25058;DHT22;13057;50.978;11.034;2023-03-13T14:33:55;15.70;99.90
25058;DHT22;13057;50.978;11.034;2023-03-13T14:36:23;15.80;99.90
25058;DHT22;13057;50.978;11.034;2023-03-13T14:38:51;15.80;99.90
25058;DHT22;13057;50.978;11.034;2023-03-13T14:41:27;15.80;99.90
25058;DHT22;13057;50.978;11.034;2023-03-13T14:44:01;15.70;99.90
25058;DHT22;13057;50.978;11.034;2023-03-13T14:46:31;15.70;99.90
25058;DHT22;13057;50.978;11.034;2023-03-13T14:49:13;15.70;99.90
25058;DHT22;13057;50.978;11.034;2023-03-13T14:51:41;15.70;99.90
25058;DHT22;13057;50.978;11.034;2023-03-13T14:54:31;15.60;99.90
25058;DHT22;13057;50.978;11.034;2023-03-13T14:57:11;15.60;99.90
25058;DHT22;13057;50.978;11.034;2023-03-13T14:59:39;15.60;99.90
25058;DHT22;13057;50.978;11.034;2023-03-13T15:02:25;15.60;99.90
25058;DHT22;13057;50.978;11.034;2023-03-13T15:04:59;15.60;99.90
25058;DHT22;13057;50.978;11.034;2023-03-13T15:07:41;15.60;99.90
25058;DHT22;13057;50.978;11.034;2023-03-13T15:10:23;15.70;99.90
25058;DHT22;13057;50.978;11.034;2023-03-13T15:15:39;15.70;99.90
25058;DHT22;13057;50.978;11.034;2023-03-13T15:18:18;15.70;99.90
25058;DHT22;13057;50.978;11.034;2023-03-13T15:20:52;15.80;99.90
25058;DHT22;13057;50.978;11.034;2023-03-13T15:23:21;15.80;99.90
25058;DHT22;13057;50.978;11.034;2023-03-13T15:25:48;15.70;99.90
25058;DHT22;13057;50.978;11.034;2023-03-13T15:28:18;15.70;99.90
25058;DHT22;13057;50.978;11.034;2023-03-13T15:30:47;15.70;99.90
25058;DHT22;13057;50.978;11.034;2023-03-13T15:33:16;15.70;99.90
25058;DHT22;13057;50.978;11.034;2023-03-13T15:35:44;15.70;99.90
25058;DHT22;13057;50.978;11.034;2023-03-13T15:38:14;15.70;99.90
25058;DHT22;13057;50.978;11.034;2023-03-13T15:40:41;15.70;99.90
25058;DHT22;13057;50.978;11.034;2023-03-13T15:43:12;15.70;99.90
25058;DHT22;13057;50.978;11.034;2023-03-13T15:45:41;15.70;99.90
25058;DHT22;13057;50.978;11.034;2023-03-13T15:48:22;15.60;99.90
25058;DHT22;13057;50.978;11.034;2023-03-13T15:50:51;15.60;99.90
25058;DHT22;13057;50.978;11.034;2023-03-13T15:53:21;15.50;99.90
25058;DHT22;13057;50.978;11.034;2023-03-13T15:55:54;15.50;99.90
25058;DHT22;13057;50.978;11.034;2023-03-13T15:58:21;15.50;99.90
25058;DHT22;13057;50.978;11.034;2023-03-13T16:00:48;15.50;99.90
25058;DHT22;13057;50.978;11.034;2023-03-13T16:03:17;15.40;99.90
25058;DHT22;13057;50.978;11.034;2023-03-13T16:05:46;15.40;99.90
25058;DHT22;13057;50.978;11.034;2023-03-13T16:08:16;15.40;99.90
25058;DHT22;13057;50.978;11.034;2023-03-13T16:10:43;15.40;99.90